sensor_id;sensor_type;location;lat;lon;timestamp;temperature;humidity
19363;DHT22;9817;50.80926400;5.16316200;2022-09-09T00:00:20;17.40;99.90
19363;DHT22;9817;50.80926400;5.16316200;2022-09-09T00:03:04;17.40;99.90
19363;DHT22;9817;50.80926400;5.16316200;2022-09-09T00:06:15;17.50;99.90
19363;DHT22;9817;50.80926400;5.16316200;2022-09-09T00:09:24;17.40;99.90
19363;DHT22;9817;50.80926400;5.16316200;2022-09-09T00:11:54;17.40;99.90
19363;DHT22;9817;50.80926400;5.16316200;2022-09-09T00:17:01;17.30;99.90
19363;DHT22;9817;50.80926400;5.16316200;2022-09-09T00:19:41;17.20;99.90
19363;DHT22;9817;50.80926400;5.16316200;2022-09-09T00:22:23;17.10;99.90
19363;DHT22;9817;50.80926400;5.16316200;2022-09-09T00:24:53;17.00;99.90
19363;DHT22;9817;50.80926400;5.16316200;2022-09-09T00:27:26;17.00;99.90
19363;DHT22;9817;50.80926400;5.16316200;2022-09-09T00:32:40;17.00;99.90
19363;DHT22;9817;50.80926400;5.16316200;2022-09-09T00:37:48;16.90;99.90
19363;DHT22;9817;50.80926400;5.16316200;2022-09-09T00:40:34;17.00;99.90
19363;DHT22;9817;50.80926400;5.16316200;2022-09-09T00:43:28;17.00;99.90
19363;DHT22;9817;50.80926400;5.16316200;2022-09-09T00:54:13;16.90;99.90
19363;DHT22;9817;50.80926400;5.16316200;2022-09-09T01:00:17;16.90;99.90
19363;DHT22;9817;50.80926400;5.16316200;2022-09-09T01:05:02;17.00;99.90
19363;DHT22;9817;50.80926400;5.16316200;2022-09-09T01:07:30;16.90;99.90
19363;DHT22;9817;50.80926400;5.16316200;2022-09-09T01:09:59;17.00;99.90
19363;DHT22;9817;50.80926400;5.16316200;2022-09-09T01:12:47;17.10;99.90
19363;DHT22;9817;50.80926400;5.16316200;2022-09-09T01:15:18;17.10;99.90
19363;DHT22;9817;50.80926400;5.16316200;2022-09-09T01:18:08;17.10;99.90
19363;DHT22;9817;50.80926400;5.16316200;2022-09-09T01:26:35;17.20;99.90
19363;DHT22;9817;50.80926400;5.16316200;2022-09-09T01:29:06;17.30;99.90
19363;DHT22;9817;50.80926400;5.16316200;2022-09-09T01:34:33;17.40;99.90
19363;DHT22;9817;50.80926400;5.16316200;2022-09-09T01:37:10;17.40;99.90
19363;DHT22;9817;50.80926400;5.16316200;2022-09-09T01:39:39;17.40;99.90
19363;DHT22;9817;50.80926400;5.16316200;2022-09-09T01:42:09;17.40;99.90
19363;DHT22;9817;50.80926400;5.16316200;2022-09-09T01:44:37;17.40;99.90
19363;DHT22;9817;50.80926400;5.16316200;2022-09-09T01:47:04;17.50;99.90
19363;DHT22;9817;50.80926400;5.16316200;2022-09-09T01:49:29;17.50;99.90
19363;DHT22;9817;50.80926400;5.16316200;2022-09-09T01:51:56;17.60;99.90
19363;DHT22;9817;50.80926400;5.16316200;2022-09-09T01:54:26;17.50;99.90
19363;DHT22;9817;50.80926400;5.16316200;2022-09-09T01:57:19;17.40;99.90
19363;DHT22;9817;50.80926400;5.16316200;2022-09-09T02:00:08;17.40;99.90
19363;DHT22;9817;50.80926400;5.16316200;2022-09-09T02:07:48;17.20;99.90
19363;DHT22;9817;50.80926400;5.16316200;2022-09-09T02:10:25;17.20;99.90
19363;DHT22;9817;50.80926400;5.16316200;2022-09-09T02:13:05;17.20;99.90
19363;DHT22;9817;50.80926400;5.16316200;2022-09-09T02:15:38;17.20;99.90
19363;DHT22;9817;50.80926400;5.16316200;2022-09-09T02:18:08;17.10;99.90
19363;DHT22;9817;50.80926400;5.16316200;2022-09-09T02:20:39;17.10;99.90
19363;DHT22;9817;50.80926400;5.16316200;2022-09-09T02:23:06;17.20;99.90
19363;DHT22;9817;50.80926400;5.16316200;2022-09-09T02:25:35;17.10;99.90
19363;DHT22;9817;50.80926400;5.16316200;2022-09-09T02:28:03;17.10;99.90
19363;DHT22;9817;50.80926400;5.16316200;2022-09-09T02:30:32;17.00;99.90
19363;DHT22;9817;50.80926400;5.16316200;2022-09-09T02:33:01;17.00;99.90
19363;DHT22;9817;50.80926400;5.16316200;2022-09-09T02:35:29;17.00;99.90
19363;DHT22;9817;50.80926400;5.16316200;2022-09-09T02:38:00;17.00;99.90
19363;DHT22;9817;50.80926400;5.16316200;2022-09-09T02:40:27;17.00;99.90
19363;DHT22;9817;50.80926400;5.16316200;2022-09-09T02:42:54;17.10;99.90
19363;DHT22;9817;50.80926400;5.16316200;2022-09-09T02:45:25;17.30;99.90
19363;DHT22;9817;50.80926400;5.16316200;2022-09-09T02:48:13;17.30;99.90
19363;DHT22;9817;50.80926400;5.16316200;2022-09-09T02:51:10;17.10;99.90
19363;DHT22;9817;50.80926400;5.16316200;2022-09-09T02:56:51;17.00;99.90
19363;DHT22;9817;50.80926400;5.16316200;2022-09-09T02:59:19;16.90;99.90
19363;DHT22;9817;50.80926400;5.16316200;2022-09-09T03:01:44;17.00;99.90
19363;DHT22;9817;50.80926400;5.16316200;2022-09-09T03:04:10;17.00;99.90
19363;DHT22;9817;50.80926400;5.16316200;2022-09-09T03:06:36;17.00;99.90
19363;DHT22;9817;50.80926400;5.16316200;2022-09-09T03:09:01;17.10;99.90
19363;DHT22;9817;50.80926400;5.16316200;2022-09-09T03:11:28;17.00;99.90
19363;DHT22;9817;50.80926400;5.16316200;2022-09-09T03:13:54;17.10;99.90
19363;DHT22;9817;50.80926400;5.16316200;2022-09-09T03:16:24;17.20;99.90
19363;DHT22;9817;50.80926400;5.16316200;2022-09-09T03:18:50;17.10;99.90
19363;DHT22;9817;50.80926400;5.16316200;2022-09-09T03:21:16;17.20;99.90
19363;DHT22;9817;50.80926400;5.16316200;2022-09-09T03:23:41;17.30;99.90
19363;DHT22;9817;50.80926400;5.16316200;2022-09-09T03:26:07;17.30;99.90
19363;DHT22;9817;50.80926400;5.16316200;2022-09-09T03:28:33;17.20;99.90
19363;DHT22;9817;50.80926400;5.16316200;2022-09-09T03:31:03;17.20;99.90
19363;DHT22;9817;50.80926400;5.16316200;2022-09-09T03:33:29;17.20;99.90
19363;DHT22;9817;50.80926400;5.16316200;2022-09-09T03:35:56;17.10;99.90
19363;DHT22;9817;50.80926400;5.16316200;2022-09-09T03:38:23;17.10;99.90
19363;DHT22;9817;50.80926400;5.16316200;2022-09-09T03:40:55;17.10;99.90
19363;DHT22;9817;50.80926400;5.16316200;2022-09-09T03:43:23;17.00;99.90
19363;DHT22;9817;50.80926400;5.16316200;2022-09-09T03:45:49;17.10;99.90
19363;DHT22;9817;50.80926400;5.16316200;2022-09-09T03:48:15;17.20;99.90
19363;DHT22;9817;50.80926400;5.16316200;2022-09-09T03:50:50;17.10;99.90
19363;DHT22;9817;50.80926400;5.16316200;2022-09-09T03:53:17;17.00;99.90
19363;DHT22;9817;50.80926400;5.16316200;2022-09-09T03:55:49;17.00;99.90
19363;DHT22;9817;50.80926400;5.16316200;2022-09-09T03:58:16;16.90;99.90
19363;DHT22;9817;50.80926400;5.16316200;2022-09-09T04:03:20;17.00;99.90
19363;DHT22;9817;50.80926400;5.16316200;2022-09-09T04:05:49;16.90;99.90
19363;DHT22;9817;50.80926400;5.16316200;2022-09-09T04:08:14;17.00;99.90
19363;DHT22;9817;50.80926400;5.16316200;2022-09-09T04:10:40;17.00;99.90
19363;DHT22;9817;50.80926400;5.16316200;2022-09-09T04:13:07;17.00;99.90
19363;DHT22;9817;50.80926400;5.16316200;2022-09-09T04:15:33;17.00;99.90
19363;DHT22;9817;50.80926400;5.16316200;2022-09-09T04:18:00;17.00;99.90
19363;DHT22;9817;50.80926400;5.16316200;2022-09-09T04:20:26;16.90;99.90
19363;DHT22;9817;50.80926400;5.16316200;2022-09-09T04:22:52;16.80;99.90
19363;DHT22;9817;50.80926400;5.16316200;2022-09-09T04:25:17;16.80;99.90
19363;DHT22;9817;50.80926400;5.16316200;2022-09-09T04:27:43;16.80;99.90
19363;DHT22;9817;50.80926400;5.16316200;2022-09-09T04:30:10;16.80;99.90
19363;DHT22;9817;50.80926400;5.16316200;2022-09-09T04:32:35;16.90;99.90
19363;DHT22;9817;50.80926400;5.16316200;2022-09-09T04:35:02;16.80;99.90
19363;DHT22;9817;50.80926400;5.16316200;2022-09-09T04:37:28;16.70;99.90
19363;DHT22;9817;50.80926400;5.16316200;2022-09-09T04:39:53;16.70;99.90
19363;DHT22;9817;50.80926400;5.16316200;2022-09-09T04:42:19;16.90;99.90
19363;DHT22;9817;50.80926400;5.16316200;2022-09-09T04:44:45;16.80;99.90
19363;DHT22;9817;50.80926400;5.16316200;2022-09-09T04:47:11;16.90;99.90
19363;DHT22;9817;50.80926400;5.16316200;2022-09-09T04:49:37;16.90;99.90
19363;DHT22;9817;50.80926400;5.16316200;2022-09-09T04:52:03;16.90;99.90
19363;DHT22;9817;50.80926400;5.16316200;2022-09-09T04:54:29;16.90;99.90
19363;DHT22;9817;50.80926400;5.16316200;2022-09-09T04:56:55;16.80;99.90
19363;DHT22;9817;50.80926400;5.16316200;2022-09-09T04:59:21;16.80;99.90
19363;DHT22;9817;50.80926400;5.16316200;2022-09-09T05:01:48;16.70;99.90
19363;DHT22;9817;50.80926400;5.16316200;2022-09-09T05:04:14;17.00;99.90
19363;DHT22;9817;50.80926400;5.16316200;2022-09-09T05:06:41;17.00;99.90
19363;DHT22;9817;50.80926400;5.16316200;2022-09-09T05:09:08;16.80;99.90
19363;DHT22;9817;50.80926400;5.16316200;2022-09-09T05:11:34;16.80;99.90
19363;DHT22;9817;50.80926400;5.16316200;2022-09-09T05:14:03;16.90;99.90
19363;DHT22;9817;50.80926400;5.16316200;2022-09-09T05:16:30;16.90;99.90
19363;DHT22;9817;50.80926400;5.16316200;2022-09-09T05:18:56;16.90;99.90
19363;DHT22;9817;50.80926400;5.16316200;2022-09-09T05:21:23;16.80;99.90
19363;DHT22;9817;50.80926400;5.16316200;2022-09-09T05:23:49;16.90;99.90
19363;DHT22;9817;50.80926400;5.16316200;2022-09-09T05:26:18;16.90;99.90
19363;DHT22;9817;50.80926400;5.16316200;2022-09-09T05:28:44;17.10;99.90
19363;DHT22;9817;50.80926400;5.16316200;2022-09-09T05:31:11;17.30;99.90
19363;DHT22;9817;50.80926400;5.16316200;2022-09-09T05:33:39;17.40;99.90
19363;DHT22;9817;50.80926400;5.16316200;2022-09-09T05:36:10;17.40;99.90
19363;DHT22;9817;50.80926400;5.16316200;2022-09-09T05:38:39;17.30;99.90
19363;DHT22;9817;50.80926400;5.16316200;2022-09-09T05:41:05;17.40;99.90
19363;DHT22;9817;50.80926400;5.16316200;2022-09-09T05:43:30;17.40;99.90
19363;DHT22;9817;50.80926400;5.16316200;2022-09-09T05:46:09;17.40;99.90
19363;DHT22;9817;50.80926400;5.16316200;2022-09-09T05:48:37;17.40;99.90
19363;DHT22;9817;50.80926400;5.16316200;2022-09-09T05:51:04;17.40;99.90
19363;DHT22;9817;50.80926400;5.16316200;2022-09-09T05:53:30;17.50;99.90
19363;DHT22;9817;50.80926400;5.16316200;2022-09-09T05:56:14;17.60;99.90
19363;DHT22;9817;50.80926400;5.16316200;2022-09-09T05:58:40;17.70;99.90
19363;DHT22;9817;50.80926400;5.16316200;2022-09-09T06:01:16;17.70;99.90
19363;DHT22;9817;50.80926400;5.16316200;2022-09-09T06:03:44;17.70;99.90
19363;DHT22;9817;50.80926400;5.16316200;2022-09-09T06:06:18;17.80;99.90
19363;DHT22;9817;50.80926400;5.16316200;2022-09-09T06:08:46;17.70;99.90
19363;DHT22;9817;50.80926400;5.16316200;2022-09-09T06:11:17;17.90;99.90
19363;DHT22;9817;50.80926400;5.16316200;2022-09-09T06:13:43;18.00;99.90
19363;DHT22;9817;50.80926400;5.16316200;2022-09-09T06:16:11;17.90;99.90
19363;DHT22;9817;50.80926400;5.16316200;2022-09-09T06:18:38;18.00;99.90
19363;DHT22;9817;50.80926400;5.16316200;2022-09-09T06:21:06;18.10;99.90
19363;DHT22;9817;50.80926400;5.16316200;2022-09-09T06:23:33;18.20;99.90
19363;DHT22;9817;50.80926400;5.16316200;2022-09-09T06:26:09;18.10;99.90
19363;DHT22;9817;50.80926400;5.16316200;2022-09-09T06:28:35;18.00;99.90
19363;DHT22;9817;50.80926400;5.16316200;2022-09-09T06:31:03;18.00;99.90
19363;DHT22;9817;50.80926400;5.16316200;2022-09-09T06:33:35;18.10;99.90
19363;DHT22;9817;50.80926400;5.16316200;2022-09-09T06:36:03;18.10;99.90
19363;DHT22;9817;50.80926400;5.16316200;2022-09-09T06:38:31;18.10;99.90
19363;DHT22;9817;50.80926400;5.16316200;2022-09-09T06:40:58;18.10;99.90
19363;DHT22;9817;50.80926400;5.16316200;2022-09-09T06:43:25;18.20;99.90
19363;DHT22;9817;50.80926400;5.16316200;2022-09-09T06:45:59;18.40;99.90
19363;DHT22;9817;50.80926400;5.16316200;2022-09-09T06:48:26;18.40;99.90
19363;DHT22;9817;50.80926400;5.16316200;2022-09-09T06:51:18;18.50;99.90
19363;DHT22;9817;50.80926400;5.16316200;2022-09-09T06:53:47;18.50;99.90
19363;DHT22;9817;50.80926400;5.16316200;2022-09-09T06:58:44;18.20;99.90
19363;DHT22;9817;50.80926400;5.16316200;2022-09-09T07:01:12;18.20;99.90
19363;DHT22;9817;50.80926400;5.16316200;2022-09-09T07:03:42;18.10;99.90
19363;DHT22;9817;50.80926400;5.16316200;2022-09-09T07:06:14;18.30;99.90
19363;DHT22;9817;50.80926400;5.16316200;2022-09-09T07:08:40;18.40;99.90
19363;DHT22;9817;50.80926400;5.16316200;2022-09-09T07:11:08;18.40;99.90
19363;DHT22;9817;50.80926400;5.16316200;2022-09-09T07:13:34;18.50;99.90
19363;DHT22;9817;50.80926400;5.16316200;2022-09-09T07:16:04;18.60;99.90
19363;DHT22;9817;50.80926400;5.16316200;2022-09-09T07:18:31;18.60;99.90
19363;DHT22;9817;50.80926400;5.16316200;2022-09-09T07:20:56;18.70;99.90
19363;DHT22;9817;50.80926400;5.16316200;2022-09-09T07:23:23;18.80;99.90
19363;DHT22;9817;50.80926400;5.16316200;2022-09-09T07:25:49;18.80;99.90
19363;DHT22;9817;50.80926400;5.16316200;2022-09-09T07:28:16;19.00;99.90
19363;DHT22;9817;50.80926400;5.16316200;2022-09-09T07:30:42;19.20;99.90
19363;DHT22;9817;50.80926400;5.16316200;2022-09-09T07:33:08;19.30;99.90
19363;DHT22;9817;50.80926400;5.16316200;2022-09-09T07:35:35;19.30;99.90
19363;DHT22;9817;50.80926400;5.16316200;2022-09-09T07:38:02;19.30;99.90
19363;DHT22;9817;50.80926400;5.16316200;2022-09-09T07:40:33;19.60;99.90
19363;DHT22;9817;50.80926400;5.16316200;2022-09-09T07:42:59;19.70;99.90
19363;DHT22;9817;50.80926400;5.16316200;2022-09-09T07:45:25;19.60;99.90
19363;DHT22;9817;50.80926400;5.16316200;2022-09-09T07:47:54;19.60;99.90
19363;DHT22;9817;50.80926400;5.16316200;2022-09-09T07:50:20;19.50;99.90
19363;DHT22;9817;50.80926400;5.16316200;2022-09-09T07:52:46;19.50;99.90
19363;DHT22;9817;50.80926400;5.16316200;2022-09-09T07:55:12;19.40;99.90
19363;DHT22;9817;50.80926400;5.16316200;2022-09-09T07:57:37;19.40;99.90
19363;DHT22;9817;50.80926400;5.16316200;2022-09-09T08:00:04;19.20;99.90
19363;DHT22;9817;50.80926400;5.16316200;2022-09-09T08:02:30;19.10;99.90
19363;DHT22;9817;50.80926400;5.16316200;2022-09-09T08:04:55;19.10;99.90
19363;DHT22;9817;50.80926400;5.16316200;2022-09-09T08:07:22;19.10;99.90
19363;DHT22;9817;50.80926400;5.16316200;2022-09-09T08:09:48;19.20;99.90
19363;DHT22;9817;50.80926400;5.16316200;2022-09-09T08:12:14;19.00;99.90
19363;DHT22;9817;50.80926400;5.16316200;2022-09-09T08:14:40;18.80;99.90
19363;DHT22;9817;50.80926400;5.16316200;2022-09-09T08:17:06;18.80;99.90
19363;DHT22;9817;50.80926400;5.16316200;2022-09-09T08:19:32;18.50;99.90
19363;DHT22;9817;50.80926400;5.16316200;2022-09-09T08:22:04;18.60;99.90
19363;DHT22;9817;50.80926400;5.16316200;2022-09-09T08:24:30;18.70;99.90
19363;DHT22;9817;50.80926400;5.16316200;2022-09-09T08:26:56;18.70;99.90
19363;DHT22;9817;50.80926400;5.16316200;2022-09-09T08:29:22;18.70;99.90
19363;DHT22;9817;50.80926400;5.16316200;2022-09-09T08:31:54;18.70;99.90
19363;DHT22;9817;50.80926400;5.16316200;2022-09-09T08:34:20;18.70;99.90
19363;DHT22;9817;50.80926400;5.16316200;2022-09-09T08:36:48;18.70;99.90
19363;DHT22;9817;50.80926400;5.16316200;2022-09-09T08:39:16;18.70;99.90
19363;DHT22;9817;50.80926400;5.16316200;2022-09-09T08:47:35;18.70;99.90
19363;DHT22;9817;50.80926400;5.16316200;2022-09-09T08:50:25;18.70;99.90
19363;DHT22;9817;50.80926400;5.16316200;2022-09-09T08:53:05;18.80;99.90
19363;DHT22;9817;50.80926400;5.16316200;2022-09-09T08:55:56;18.80;99.90
19363;DHT22;9817;50.80926400;5.16316200;2022-09-09T08:58:28;18.90;99.90
19363;DHT22;9817;50.80926400;5.16316200;2022-09-09T09:11:39;19.40;99.90
19363;DHT22;9817;50.80926400;5.16316200;2022-09-09T09:14:23;19.30;99.90
19363;DHT22;9817;50.80926400;5.16316200;2022-09-09T09:16:56;19.30;99.90
19363;DHT22;9817;50.80926400;5.16316200;2022-09-09T09:19:23;19.50;99.90
19363;DHT22;9817;50.80926400;5.16316200;2022-09-09T09:27:15;20.30;99.90
19363;DHT22;9817;50.80926400;5.16316200;2022-09-09T09:29:43;20.70;99.90
19363;DHT22;9817;50.80926400;5.16316200;2022-09-09T09:32:13;20.70;99.90
19363;DHT22;9817;50.80926400;5.16316200;2022-09-09T09:34:39;20.60;99.90
19363;DHT22;9817;50.80926400;5.16316200;2022-09-09T09:37:23;20.40;99.90
19363;DHT22;9817;50.80926400;5.16316200;2022-09-09T09:39:53;20.50;99.90
19363;DHT22;9817;50.80926400;5.16316200;2022-09-09T09:42:19;20.60;99.90
19363;DHT22;9817;50.80926400;5.16316200;2022-09-09T09:44:44;20.70;99.90
19363;DHT22;9817;50.80926400;5.16316200;2022-09-09T09:47:20;20.80;99.90
19363;DHT22;9817;50.80926400;5.16316200;2022-09-09T09:49:57;20.60;99.90
19363;DHT22;9817;50.80926400;5.16316200;2022-09-09T09:52:28;20.30;99.90
19363;DHT22;9817;50.80926400;5.16316200;2022-09-09T09:54:56;20.20;99.90
19363;DHT22;9817;50.80926400;5.16316200;2022-09-09T09:57:40;20.20;99.90
19363;DHT22;9817;50.80926400;5.16316200;2022-09-09T10:02:41;19.90;99.90
19363;DHT22;9817;50.80926400;5.16316200;2022-09-09T10:05:19;19.70;99.90
19363;DHT22;9817;50.80926400;5.16316200;2022-09-09T10:07:46;19.40;99.90
19363;DHT22;9817;50.80926400;5.16316200;2022-09-09T10:10:32;19.20;99.90
19363;DHT22;9817;50.80926400;5.16316200;2022-09-09T10:19:08;18.50;99.90
19363;DHT22;9817;50.80926400;5.16316200;2022-09-09T10:22:11;18.40;99.90
19363;DHT22;9817;50.80926400;5.16316200;2022-09-09T10:24:52;18.40;99.90
19363;DHT22;9817;50.80926400;5.16316200;2022-09-09T10:35:30;18.40;99.90
19363;DHT22;9817;50.80926400;5.16316200;2022-09-09T10:40:48;18.90;99.90
19363;DHT22;9817;50.80926400;5.16316200;2022-09-09T10:43:37;19.20;99.90
19363;DHT22;9817;50.80926400;5.16316200;2022-09-09T10:56:29;19.60;99.90
19363;DHT22;9817;50.80926400;5.16316200;2022-09-09T11:01:25;19.50;99.90
19363;DHT22;9817;50.80926400;5.16316200;2022-09-09T11:03:57;19.80;99.90
19363;DHT22;9817;50.80926400;5.16316200;2022-09-09T11:06:31;20.00;99.90
19363;DHT22;9817;50.80926400;5.16316200;2022-09-09T11:09:02;20.00;99.90
19363;DHT22;9817;50.80926400;5.16316200;2022-09-09T11:11:49;20.10;99.90
19363;DHT22;9817;50.80926400;5.16316200;2022-09-09T11:14:28;20.30;99.90
19363;DHT22;9817;50.80926400;5.16316200;2022-09-09T11:17:04;20.50;99.90
19363;DHT22;9817;50.80926400;5.16316200;2022-09-09T11:19:36;20.30;99.90
19363;DHT22;9817;50.80926400;5.16316200;2022-09-09T11:30:21;20.60;99.90
19363;DHT22;9817;50.80926400;5.16316200;2022-09-09T11:32:57;20.70;99.90
19363;DHT22;9817;50.80926400;5.16316200;2022-09-09T11:38:38;21.00;99.90
19363;DHT22;9817;50.80926400;5.16316200;2022-09-09T11:41:08;21.00;99.90
19363;DHT22;9817;50.80926400;5.16316200;2022-09-09T11:43:49;20.80;99.90
19363;DHT22;9817;50.80926400;5.16316200;2022-09-09T11:46:22;20.50;99.90
19363;DHT22;9817;50.80926400;5.16316200;2022-09-09T11:49:05;20.20;99.90
19363;DHT22;9817;50.80926400;5.16316200;2022-09-09T11:51:32;19.80;99.90
19363;DHT22;9817;50.80926400;5.16316200;2022-09-09T11:54:00;19.70;99.90
19363;DHT22;9817;50.80926400;5.16316200;2022-09-09T11:56:43;19.50;99.90
19363;DHT22;9817;50.80926400;5.16316200;2022-09-09T11:59:25;19.40;99.90
19363;DHT22;9817;50.80926400;5.16316200;2022-09-09T12:01:55;19.10;99.90
19363;DHT22;9817;50.80926400;5.16316200;2022-09-09T12:06:59;18.10;99.90
19363;DHT22;9817;50.80926400;5.16316200;2022-09-09T12:09:47;17.70;99.90
19363;DHT22;9817;50.80926400;5.16316200;2022-09-09T12:12:26;17.40;99.90
19363;DHT22;9817;50.80926400;5.16316200;2022-09-09T12:17:22;17.50;99.90
19363;DHT22;9817;50.80926400;5.16316200;2022-09-09T12:20:22;17.70;99.90
19363;DHT22;9817;50.80926400;5.16316200;2022-09-09T12:25:58;18.50;99.90
19363;DHT22;9817;50.80926400;5.16316200;2022-09-09T12:31:22;19.20;99.90
19363;DHT22;9817;50.80926400;5.16316200;2022-09-09T12:33:50;19.40;99.90
19363;DHT22;9817;50.80926400;5.16316200;2022-09-09T12:36:27;19.60;99.90
19363;DHT22;9817;50.80926400;5.16316200;2022-09-09T12:38:56;19.80;99.90
19363;DHT22;9817;50.80926400;5.16316200;2022-09-09T12:41:25;20.10;99.90
19363;DHT22;9817;50.80926400;5.16316200;2022-09-09T12:44:03;20.20;99.90
19363;DHT22;9817;50.80926400;5.16316200;2022-09-09T12:46:33;20.40;99.90
19363;DHT22;9817;50.80926400;5.16316200;2022-09-09T12:48:59;20.50;99.90
19363;DHT22;9817;50.80926400;5.16316200;2022-09-09T12:51:30;20.50;99.90
19363;DHT22;9817;50.80926400;5.16316200;2022-09-09T12:53:56;20.60;99.90
19363;DHT22;9817;50.80926400;5.16316200;2022-09-09T12:56:28;20.60;99.90
19363;DHT22;9817;50.80926400;5.16316200;2022-09-09T12:58:56;20.70;99.90
19363;DHT22;9817;50.80926400;5.16316200;2022-09-09T13:01:27;20.70;99.90
19363;DHT22;9817;50.80926400;5.16316200;2022-09-09T13:03:54;20.70;99.90
19363;DHT22;9817;50.80926400;5.16316200;2022-09-09T13:06:25;20.60;99.90
19363;DHT22;9817;50.80926400;5.16316200;2022-09-09T13:08:55;20.70;99.90
19363;DHT22;9817;50.80926400;5.16316200;2022-09-09T13:11:41;20.90;99.90
19363;DHT22;9817;50.80926400;5.16316200;2022-09-09T13:14:30;21.10;99.90
19363;DHT22;9817;50.80926400;5.16316200;2022-09-09T13:17:02;21.10;99.90
19363;DHT22;9817;50.80926400;5.16316200;2022-09-09T13:19:38;20.90;99.90
19363;DHT22;9817;50.80926400;5.16316200;2022-09-09T13:22:14;20.90;99.90
19363;DHT22;9817;50.80926400;5.16316200;2022-09-09T13:24:44;21.00;99.90
19363;DHT22;9817;50.80926400;5.16316200;2022-09-09T13:27:51;20.90;99.90
19363;DHT22;9817;50.80926400;5.16316200;2022-09-09T13:30:36;20.90;99.90
19363;DHT22;9817;50.80926400;5.16316200;2022-09-09T13:35:58;20.70;99.90
19363;DHT22;9817;50.80926400;5.16316200;2022-09-09T13:38:25;20.60;99.90
19363;DHT22;9817;50.80926400;5.16316200;2022-09-09T13:41:02;20.50;99.90
19363;DHT22;9817;50.80926400;5.16316200;2022-09-09T13:43:31;20.60;99.90
19363;DHT22;9817;50.80926400;5.16316200;2022-09-09T13:46:03;20.80;99.90
19363;DHT22;9817;50.80926400;5.16316200;2022-09-09T13:48:29;20.80;99.90
19363;DHT22;9817;50.80926400;5.16316200;2022-09-09T13:50:58;21.10;99.90
19363;DHT22;9817;50.80926400;5.16316200;2022-09-09T13:53:24;20.90;99.90
19363;DHT22;9817;50.80926400;5.16316200;2022-09-09T13:55:51;21.00;99.90
19363;DHT22;9817;50.80926400;5.16316200;2022-09-09T13:58:17;21.00;99.90
19363;DHT22;9817;50.80926400;5.16316200;2022-09-09T14:00:48;21.10;99.90
19363;DHT22;9817;50.80926400;5.16316200;2022-09-09T14:03:15;21.50;99.90
19363;DHT22;9817;50.80926400;5.16316200;2022-09-09T14:05:40;21.70;99.90
19363;DHT22;9817;50.80926400;5.16316200;2022-09-09T14:08:22;21.70;99.90
19363;DHT22;9817;50.80926400;5.16316200;2022-09-09T14:10:48;21.80;99.90
19363;DHT22;9817;50.80926400;5.16316200;2022-09-09T14:13:14;21.70;99.90
19363;DHT22;9817;50.80926400;5.16316200;2022-09-09T14:15:41;21.60;99.90
19363;DHT22;9817;50.80926400;5.16316200;2022-09-09T14:18:10;21.60;99.90
19363;DHT22;9817;50.80926400;5.16316200;2022-09-09T14:20:37;21.50;99.90
19363;DHT22;9817;50.80926400;5.16316200;2022-09-09T14:23:02;21.30;99.90
19363;DHT22;9817;50.80926400;5.16316200;2022-09-09T14:25:28;21.40;99.90
19363;DHT22;9817;50.80926400;5.16316200;2022-09-09T14:27:54;21.70;99.90
19363;DHT22;9817;50.80926400;5.16316200;2022-09-09T14:30:19;21.60;99.90
19363;DHT22;9817;50.80926400;5.16316200;2022-09-09T14:32:45;21.50;99.90
19363;DHT22;9817;50.80926400;5.16316200;2022-09-09T14:35:10;21.50;99.90
19363;DHT22;9817;50.80926400;5.16316200;2022-09-09T14:37:37;21.40;99.90
19363;DHT22;9817;50.80926400;5.16316200;2022-09-09T14:40:04;21.60;99.90
19363;DHT22;9817;50.80926400;5.16316200;2022-09-09T14:42:30;21.90;99.90
19363;DHT22;9817;50.80926400;5.16316200;2022-09-09T14:44:56;22.20;99.90
19363;DHT22;9817;50.80926400;5.16316200;2022-09-09T14:47:21;22.20;99.90
19363;DHT22;9817;50.80926400;5.16316200;2022-09-09T14:49:47;22.10;99.90
19363;DHT22;9817;50.80926400;5.16316200;2022-09-09T14:52:15;21.80;99.90
19363;DHT22;9817;50.80926400;5.16316200;2022-09-09T14:54:41;21.80;99.90
19363;DHT22;9817;50.80926400;5.16316200;2022-09-09T14:57:07;21.70;99.90
19363;DHT22;9817;50.80926400;5.16316200;2022-09-09T14:59:32;21.70;99.90
19363;DHT22;9817;50.80926400;5.16316200;2022-09-09T15:01:59;21.50;99.90
19363;DHT22;9817;50.80926400;5.16316200;2022-09-09T15:04:29;21.40;99.90
19363;DHT22;9817;50.80926400;5.16316200;2022-09-09T15:06:55;21.60;99.90
19363;DHT22;9817;50.80926400;5.16316200;2022-09-09T15:09:20;21.70;99.90
19363;DHT22;9817;50.80926400;5.16316200;2022-09-09T15:11:46;21.70;99.90
19363;DHT22;9817;50.80926400;5.16316200;2022-09-09T15:14:12;21.70;99.90
19363;DHT22;9817;50.80926400;5.16316200;2022-09-09T15:16:38;21.50;99.90
19363;DHT22;9817;50.80926400;5.16316200;2022-09-09T15:19:04;21.50;99.90
19363;DHT22;9817;50.80926400;5.16316200;2022-09-09T15:21:33;21.50;99.90
19363;DHT22;9817;50.80926400;5.16316200;2022-09-09T15:23:59;21.60;99.90
19363;DHT22;9817;50.80926400;5.16316200;2022-09-09T15:26:26;21.30;99.90
19363;DHT22;9817;50.80926400;5.16316200;2022-09-09T15:28:52;21.30;99.90
19363;DHT22;9817;50.80926400;5.16316200;2022-09-09T15:31:19;21.30;99.90
19363;DHT22;9817;50.80926400;5.16316200;2022-09-09T15:33:59;21.30;99.90
19363;DHT22;9817;50.80926400;5.16316200;2022-09-09T15:36:30;21.40;99.90
19363;DHT22;9817;50.80926400;5.16316200;2022-09-09T15:38:57;21.60;99.90
19363;DHT22;9817;50.80926400;5.16316200;2022-09-09T15:41:23;21.90;99.90
19363;DHT22;9817;50.80926400;5.16316200;2022-09-09T15:43:51;22.00;99.90
19363;DHT22;9817;50.80926400;5.16316200;2022-09-09T15:48:44;21.90;99.90
19363;DHT22;9817;50.80926400;5.16316200;2022-09-09T15:51:10;21.80;99.90
19363;DHT22;9817;50.80926400;5.16316200;2022-09-09T15:53:39;21.70;99.90
19363;DHT22;9817;50.80926400;5.16316200;2022-09-09T15:56:06;21.40;99.90
19363;DHT22;9817;50.80926400;5.16316200;2022-09-09T15:58:32;21.30;99.90